Wetterdaten: Woche 23.02.26 - 01.03.26 (KW9)
Datum Zeit Temp. Aussen Temp. o. S. Temp +5cm Feuchte Auss Luftdruck Regen Sonnenschein Solar Windböen Empfang
23.02.2026 00:00 10,0 °C 9,2 °C 5,9 °C 96 % 1016,1 hPa 0,0 l/m² 0,00 h 0 W/m² 14,9 km/h (3 Bft) 96,52 %
23.02.2026 01:00 9,5 °C 8,4 °C 5,5 °C 95 % 1016,1 hPa 0,0 l/m² 0,00 h 0 W/m² 13,7 km/h (3 Bft) 96,30 %
23.02.2026 02:00 8,9 °C 8,0 °C 4,9 °C 95 % 1016,1 hPa 0,0 l/m² 0,00 h 0 W/m² 12,0 km/h (2 Bft) 98,65 %
23.02.2026 03:00 8,3 °C 7,3 °C 4,4 °C 95 % 1015,8 hPa 0,0 l/m² 0,00 h 0 W/m² 10,6 km/h (2 Bft) 97,51 %
23.02.2026 04:00 8,2 °C 7,4 °C 4,4 °C 96 % 1015,7 hPa 0,0 l/m² 0,00 h 0 W/m² 14,8 km/h (3 Bft) 97,65 %
23.02.2026 05:00 8,2 °C 7,5 °C 4,4 °C 96 % 1015,8 hPa 0,0 l/m² 0,00 h 0 W/m² 14,7 km/h (3 Bft) 96,44 %
23.02.2026 06:00 8,3 °C 7,7 °C 4,9 °C 96 % 1015,7 hPa 0,0 l/m² 0,00 h 0 W/m² 15,5 km/h (3 Bft) 99,19 %
23.02.2026 07:00 8,5 °C 7,9 °C 5,0 °C 95 % 1015,7 hPa 0,0 l/m² 0,00 h 7 W/m² 15,8 km/h (3 Bft) 96,30 %
23.02.2026 08:00 8,8 °C 8,3 °C 5,3 °C 93 % 1015,6 hPa 0,0 l/m² 0,00 h 25 W/m² 18,0 km/h (3 Bft) 97,51 %
23.02.2026 09:00 9,2 °C 9,1 °C 5,8 °C 92 % 1015,5 hPa 0,0 l/m² 0,00 h 79 W/m² 21,2 km/h (4 Bft) 98,43 %
23.02.2026 10:00 9,4 °C 9,1 °C 5,4 °C 91 % 1015,2 hPa 0,0 l/m² 0,00 h 81 W/m² 22,1 km/h (4 Bft) 96,06 %
23.02.2026 11:00 9,8 °C 9,5 °C 6,1 °C 90 % 1015,2 hPa 0,2 l/m² 0,00 h 85 W/m² 21,5 km/h (4 Bft) 96,58 %
23.02.2026 12:00 10,3 °C 10,0 °C 6,3 °C 87 % 1015,3 hPa 0,0 l/m² 0,00 h 78 W/m² 18,9 km/h (3 Bft) 98,56 %
23.02.2026 13:00 10,8 °C 10,9 °C 6,8 °C 84 % 1015,0 hPa 0,0 l/m² 0,00 h 136 W/m² 22,3 km/h (4 Bft) 95,30 %
23.02.2026 14:00 11,5 °C 11,8 °C 7,2 °C 80 % 1014,7 hPa 0,0 l/m² 0,07 h 156 W/m² 23,9 km/h (4 Bft) 98,79 %
23.02.2026 15:00 11,9 °C 12,3 °C 7,6 °C 78 % 1014,7 hPa 0,0 l/m² 0,27 h 139 W/m² 20,3 km/h (4 Bft) 98,40 %
23.02.2026 16:00 12,1 °C 12,0 °C 7,6 °C 76 % 1014,7 hPa 0,0 l/m² 0,60 h 129 W/m² 19,8 km/h (4 Bft) 95,98 %
23.02.2026 17:00 11,3 °C 10,6 °C 6,6 °C 74 % 1014,9 hPa 0,0 l/m² 0,00 h 26 W/m² 17,7 km/h (3 Bft) 98,17 %
23.02.2026 18:00 9,9 °C 8,8 °C 4,4 °C 86 % 1015,3 hPa 1,0 l/m² 0,00 h 0 W/m² 11,8 km/h (2 Bft) 97,81 %
23.02.2026 19:00 9,1 °C 8,1 °C 3,7 °C 92 % 1015,7 hPa 0,0 l/m² 0,00 h 0 W/m² 6,0 km/h (2 Bft) 96,52 %
23.02.2026 20:00 9,1 °C 8,3 °C 3,9 °C 93 % 1015,9 hPa 0,0 l/m² 0,00 h 0 W/m² 8,2 km/h (2 Bft) 98,43 %
23.02.2026 21:00 9,5 °C 8,9 °C 4,4 °C 92 % 1016,1 hPa 0,0 l/m² 0,00 h 0 W/m² 12,0 km/h (2 Bft) 97,65 %
23.02.2026 22:00 9,5 °C 8,4 °C 4,4 °C 93 % 1016,2 hPa 0,7 l/m² 0,00 h 0 W/m² 10,3 km/h (2 Bft) 94,86 %
23.02.2026 23:00 9,3 °C 8,3 °C 4,4 °C 95 % 1016,4 hPa 0,5 l/m² 0,00 h 0 W/m² 8,9 km/h (2 Bft) 97,09 %
24.02.2026 00:00 9,4 °C 8,7 °C 4,4 °C 96 % 1016,6 hPa 0,0 l/m² 0,00 h 0 W/m² 9,0 km/h (2 Bft) 97,48 %
24.02.2026 01:00 9,4 °C 8,7 °C 4,4 °C 96 % 1016,8 hPa 0,0 l/m² 0,00 h 0 W/m² 9,6 km/h (2 Bft) 97,23 %
24.02.2026 02:00 9,3 °C 8,5 °C 4,4 °C 96 % 1016,9 hPa 0,0 l/m² 0,00 h 0 W/m² 12,2 km/h (2 Bft) 97,06 %
24.02.2026 03:00 9,2 °C 8,3 °C 4,4 °C 97 % 1016,8 hPa 0,0 l/m² 0,00 h 0 W/m² 9,2 km/h (2 Bft) 98,36 %
24.02.2026 04:00 9,2 °C 8,3 °C 4,9 °C 97 % 1017,3 hPa 0,0 l/m² 0,00 h 0 W/m² 4,1 km/h (1 Bft) 96,51 %
24.02.2026 05:00 9,1 °C 8,3 °C 4,7 °C 98 % 1017,9 hPa 0,0 l/m² 0,00 h 0 W/m² 2,0 km/h (1 Bft) 97,44 %
24.02.2026 06:00 8,9 °C 7,9 °C 4,4 °C 98 % 1018,2 hPa 0,0 l/m² 0,00 h 0 W/m² 0,3 km/h (0 Bft) 99,04 %
24.02.2026 07:00 8,8 °C 7,8 °C 4,4 °C 98 % 1018,7 hPa 0,0 l/m² 0,00 h 10 W/m² 0,4 km/h (0 Bft) 95,17 %
24.02.2026 08:00 9,0 °C 8,7 °C 5,1 °C 98 % 1019,1 hPa 0,0 l/m² 0,00 h 39 W/m² 3,0 km/h (1 Bft) 98,86 %
24.02.2026 09:00 9,6 °C 9,9 °C 6,0 °C 99 % 1019,6 hPa 0,0 l/m² 0,07 h 86 W/m² 3,4 km/h (1 Bft) 97,51 %
24.02.2026 10:00 10,1 °C 10,5 °C 6,7 °C 99 % 1019,8 hPa 0,0 l/m² 0,00 h 111 W/m² 6,2 km/h (2 Bft) 96,63 %
24.02.2026 11:00 10,5 °C 10,7 °C 7,2 °C 99 % 1020,1 hPa 0,0 l/m² 0,00 h 89 W/m² 6,1 km/h (2 Bft) 96,59 %
24.02.2026 12:00 10,5 °C 10,2 °C 6,9 °C 99 % 1020,3 hPa 0,0 l/m² 0,00 h 75 W/m² 9,2 km/h (2 Bft) 97,99 %
24.02.2026 13:00 10,7 °C 10,7 °C 7,0 °C 99 % 1020,3 hPa 0,0 l/m² 0,00 h 108 W/m² 6,6 km/h (2 Bft) 95,50 %
24.02.2026 14:00 11,3 °C 11,9 °C 8,0 °C 99 % 1020,2 hPa 0,0 l/m² 0,00 h 126 W/m² 4,5 km/h (1 Bft) 99,22 %
24.02.2026 15:00 11,9 °C 12,3 °C 8,5 °C 99 % 1020,0 hPa 0,0 l/m² 0,00 h 66 W/m² 1,3 km/h (1 Bft) 96,53 %
24.02.2026 16:00 12,1 °C 11,5 °C 8,1 °C 98 % 1020,3 hPa 0,0 l/m² 0,00 h 30 W/m² 5,2 km/h (1 Bft) 97,40 %
24.02.2026 17:00 11,8 °C 10,8 °C 7,4 °C 98 % 1020,4 hPa 0,0 l/m² 0,00 h 13 W/m² 5,3 km/h (1 Bft) 98,15 %
24.02.2026 18:00 11,5 °C 10,6 °C 7,2 °C 98 % 1020,7 hPa 0,0 l/m² 0,00 h 0 W/m² 5,7 km/h (1 Bft) 96,89 %
24.02.2026 19:00 11,3 °C 10,6 °C 7,2 °C 98 % 1020,8 hPa 0,0 l/m² 0,00 h 0 W/m² 5,6 km/h (1 Bft) 96,99 %
24.02.2026 20:00 11,1 °C 10,6 °C 7,2 °C 99 % 1020,9 hPa 0,0 l/m² 0,00 h 0 W/m² 4,9 km/h (1 Bft) 98,99 %
24.02.2026 21:00 10,8 °C 10,2 °C 7,1 °C 99 % 1020,8 hPa 0,0 l/m² 0,00 h 0 W/m² 4,7 km/h (1 Bft) 96,08 %
24.02.2026 22:00 10,4 °C 9,4 °C 6,5 °C 99 % 1020,9 hPa 0,0 l/m² 0,00 h 0 W/m² 1,7 km/h (1 Bft) 97,73 %
24.02.2026 23:00 10,1 °C 9,4 °C 6,6 °C 99 % 1020,9 hPa 0,2 l/m² 0,00 h 0 W/m² 5,1 km/h (1 Bft) 97,93 %
25.02.2026 00:00 9,7 °C 8,7 °C 5,9 °C 99 % 1020,8 hPa 0,0 l/m² 0,00 h 0 W/m² 3,3 km/h (1 Bft) 92,85 %
25.02.2026 01:00 9,1 °C 8,1 °C 5,4 °C 99 % 1020,8 hPa 0,0 l/m² 0,00 h 0 W/m² 9,4 km/h (2 Bft) 97,94 %
25.02.2026 02:00 8,7 °C 7,8 °C 5,0 °C 99 % 1020,6 hPa 0,0 l/m² 0,00 h 0 W/m² 9,5 km/h (2 Bft) 97,29 %
25.02.2026 03:00 8,3 °C 7,2 °C 4,9 °C 99 % 1020,3 hPa 0,0 l/m² 0,00 h 0 W/m² 6,1 km/h (2 Bft) 98,40 %
25.02.2026 04:00 8,5 °C 7,8 °C 5,4 °C 99 % 1020,4 hPa 0,0 l/m² 0,00 h 0 W/m² 6,9 km/h (2 Bft) 97,11 %
25.02.2026 05:00 8,4 °C 7,3 °C 4,8 °C 99 % 1020,6 hPa 0,0 l/m² 0,00 h 0 W/m² 3,8 km/h (1 Bft) 98,29 %
25.02.2026 06:00 8,4 °C 7,7 °C 5,2 °C 99 % 1020,9 hPa 0,0 l/m² 0,00 h 0 W/m² 10,7 km/h (2 Bft) 97,39 %
25.02.2026 07:00 9,1 °C 8,6 °C 6,0 °C 100 % 1021,0 hPa 0,0 l/m² 0,00 h 7 W/m² 13,8 km/h (3 Bft) 96,37 %
25.02.2026 08:00 9,3 °C 9,2 °C 6,3 °C 100 % 1021,1 hPa 0,0 l/m² 0,00 h 36 W/m² 15,6 km/h (3 Bft) 97,51 %
25.02.2026 09:00 10,0 °C 11,8 °C 7,2 °C 100 % 1021,1 hPa 0,0 l/m² 0,43 h 129 W/m² 20,4 km/h (4 Bft) 98,15 %
25.02.2026 10:00 11,7 °C 16,8 °C 8,9 °C 97 % 1021,1 hPa 0,0 l/m² 0,87 h 305 W/m² 19,8 km/h (4 Bft) 96,30 %
25.02.2026 11:00 14,1 °C 21,3 °C 14,9 °C 86 % 1021,3 hPa 0,0 l/m² 1,00 h 476 W/m² 20,2 km/h (4 Bft) 96,87 %
25.02.2026 12:00 15,3 °C 19,9 °C 13,3 °C 82 % 1020,9 hPa 0,0 l/m² 1,00 h 523 W/m² 21,2 km/h (4 Bft) 95,06 %
25.02.2026 13:00 16,8 °C 23,2 °C 12,2 °C 78 % 1020,5 hPa 0,0 l/m² 1,00 h 514 W/m² 19,8 km/h (4 Bft) 98,79 %
25.02.2026 14:00 17,5 °C 22,3 °C 12,5 °C 75 % 1019,9 hPa 0,0 l/m² 1,00 h 455 W/m² 21,2 km/h (4 Bft) 98,07 %
25.02.2026 15:00 18,0 °C 20,8 °C 12,6 °C 74 % 1019,5 hPa 0,0 l/m² 1,00 h 333 W/m² 20,5 km/h (4 Bft) 96,95 %
25.02.2026 16:00 17,4 °C 16,5 °C 11,8 °C 75 % 1019,4 hPa 0,0 l/m² 0,43 h 119 W/m² 16,5 km/h (3 Bft) 97,65 %
25.02.2026 17:00 16,3 °C 15,3 °C 11,1 °C 78 % 1019,6 hPa 0,0 l/m² 0,03 h 32 W/m² 14,1 km/h (3 Bft) 97,79 %
25.02.2026 18:00 14,9 °C 13,7 °C 9,7 °C 82 % 1019,8 hPa 0,0 l/m² 0,00 h 10 W/m² 16,4 km/h (3 Bft) 96,75 %
25.02.2026 19:00 13,8 °C 12,5 °C 8,8 °C 85 % 1020,0 hPa 0,0 l/m² 0,00 h 0 W/m² 16,5 km/h (3 Bft) 99,57 %
25.02.2026 20:00 12,7 °C 11,6 °C 7,9 °C 89 % 1020,1 hPa 0,0 l/m² 0,00 h 0 W/m² 14,9 km/h (3 Bft) 95,09 %
25.02.2026 21:00 11,9 °C 10,9 °C 7,2 °C 90 % 1020,3 hPa 0,0 l/m² 0,00 h 0 W/m² 14,5 km/h (3 Bft) 99,22 %
25.02.2026 22:00 11,3 °C 10,3 °C 6,7 °C 91 % 1020,7 hPa 0,0 l/m² 0,00 h 0 W/m² 14,3 km/h (3 Bft) 97,32 %
25.02.2026 23:00 10,6 °C 9,6 °C 6,2 °C 92 % 1020,7 hPa 0,0 l/m² 0,00 h 0 W/m² 15,0 km/h (3 Bft) 96,41 %
26.02.2026 00:00 10,1 °C 9,2 °C 5,6 °C 93 % 1020,6 hPa 0,0 l/m² 0,00 h 0 W/m² 14,6 km/h (3 Bft) 98,67 %
26.02.2026 01:00 9,7 °C 8,9 °C 5,6 °C 94 % 1020,5 hPa 0,0 l/m² 0,00 h 0 W/m² 14,0 km/h (3 Bft) 97,00 %
26.02.2026 02:00 9,5 °C 8,8 °C 5,0 °C 94 % 1020,4 hPa 0,0 l/m² 0,00 h 0 W/m² 17,8 km/h (3 Bft) 97,32 %
26.02.2026 03:00 9,3 °C 8,4 °C 5,0 °C 94 % 1019,9 hPa 0,0 l/m² 0,00 h 0 W/m² 18,9 km/h (3 Bft) 96,84 %
26.02.2026 04:00 9,0 °C 8,1 °C 4,7 °C 95 % 1019,9 hPa 0,0 l/m² 0,00 h 0 W/m² 15,6 km/h (3 Bft) 97,96 %
26.02.2026 05:00 8,7 °C 7,8 °C 4,4 °C 96 % 1020,2 hPa 0,0 l/m² 0,00 h 0 W/m² 13,4 km/h (3 Bft) 96,94 %
26.02.2026 06:00 8,5 °C 7,8 °C 4,4 °C 96 % 1020,4 hPa 0,0 l/m² 0,00 h 0 W/m² 15,4 km/h (3 Bft) 97,36 %
26.02.2026 07:00 8,2 °C 7,3 °C 4,1 °C 97 % 1020,7 hPa 0,0 l/m² 0,00 h 12 W/m² 15,6 km/h (3 Bft) 98,22 %
26.02.2026 08:00 8,3 °C 8,2 °C 4,4 °C 97 % 1021,0 hPa 0,0 l/m² 0,17 h 61 W/m² 14,5 km/h (3 Bft) 97,88 %
26.02.2026 09:00 9,6 °C 11,1 °C 6,1 °C 97 % 1021,4 hPa 0,0 l/m² 0,53 h 127 W/m² 11,1 km/h (2 Bft) 96,17 %
26.02.2026 10:00 11,7 °C 17,3 °C 8,5 °C 94 % 1021,5 hPa 0,0 l/m² 0,77 h 258 W/m² 12,0 km/h (2 Bft) 99,10 %
26.02.2026 11:00 15,4 °C 22,4 °C 15,8 °C 83 % 1021,4 hPa 0,0 l/m² 1,00 h 427 W/m² 16,0 km/h (3 Bft) 96,63 %
26.02.2026 12:00 16,8 °C 21,4 °C 14,7 °C 79 % 1020,8 hPa 0,0 l/m² 1,00 h 473 W/m² 21,1 km/h (4 Bft) 99,57 %
26.02.2026 13:00 18,2 °C 22,9 °C 13,7 °C 75 % 1020,1 hPa 0,0 l/m² 1,00 h 428 W/m² 20,2 km/h (4 Bft) 96,65 %
26.02.2026 14:00 19,1 °C 23,0 °C 13,9 °C 72 % 1019,7 hPa 0,0 l/m² 1,00 h 401 W/m² 21,0 km/h (4 Bft) 96,84 %
26.02.2026 15:00 19,5 °C 22,5 °C 14,1 °C 70 % 1019,5 hPa 0,0 l/m² 1,00 h 312 W/m² 19,8 km/h (4 Bft) 98,14 %
26.02.2026 16:00 18,8 °C 18,4 °C 13,3 °C 70 % 1019,5 hPa 0,0 l/m² 0,63 h 143 W/m² 18,6 km/h (3 Bft) 97,79 %
26.02.2026 17:00 17,8 °C 16,8 °C 12,4 °C 70 % 1019,1 hPa 0,0 l/m² 0,00 h 29 W/m² 16,6 km/h (3 Bft) 97,15 %
26.02.2026 18:00 16,8 °C 15,5 °C 11,3 °C 71 % 1019,2 hPa 0,0 l/m² 0,00 h 7 W/m² 14,9 km/h (3 Bft) 98,67 %
26.02.2026 19:00 15,4 °C 14,0 °C 9,9 °C 75 % 1019,5 hPa 0,0 l/m² 0,00 h 0 W/m² 9,2 km/h (2 Bft) 94,50 %
26.02.2026 20:00 14,5 °C 13,3 °C 9,2 °C 77 % 1019,4 hPa 0,0 l/m² 0,00 h 0 W/m² 11,7 km/h (2 Bft) 98,92 %
26.02.2026 21:00 13,7 °C 12,4 °C 8,5 °C 81 % 1019,3 hPa 0,0 l/m² 0,00 h 0 W/m² 11,8 km/h (2 Bft) 97,88 %
26.02.2026 22:00 13,1 °C 12,0 °C 8,1 °C 84 % 1019,1 hPa 0,0 l/m² 0,00 h 0 W/m² 13,2 km/h (3 Bft) 96,61 %
26.02.2026 23:00 12,5 °C 11,4 °C 7,6 °C 86 % 1018,8 hPa 0,0 l/m² 0,00 h 0 W/m² 8,4 km/h (2 Bft) 98,57 %
27.02.2026 00:00 11,7 °C 10,2 °C 6,6 °C 87 % 1018,9 hPa 0,0 l/m² 0,00 h 0 W/m² 5,3 km/h (1 Bft) 92,95 %
27.02.2026 01:00 11,0 °C 9,6 °C 5,6 °C 89 % 1018,9 hPa 0,0 l/m² 0,00 h 0 W/m² 3,4 km/h (1 Bft) 96,17 %
27.02.2026 02:00 11,1 °C 10,5 °C 6,6 °C 90 % 1018,6 hPa 0,0 l/m² 0,00 h 0 W/m² 9,6 km/h (2 Bft) 98,56 %
27.02.2026 03:00 11,2 °C 10,2 °C 6,3 °C 89 % 1018,2 hPa 0,0 l/m² 0,00 h 0 W/m² 9,2 km/h (2 Bft) 97,16 %
27.02.2026 04:00 10,5 °C 9,1 °C 5,4 °C 89 % 1017,8 hPa 0,0 l/m² 0,00 h 0 W/m² 5,2 km/h (1 Bft) 96,86 %
27.02.2026 05:00 9,8 °C 8,9 °C 5,2 °C 91 % 1017,5 hPa 0,0 l/m² 0,00 h 0 W/m² 10,1 km/h (2 Bft) 97,45 %
27.02.2026 06:00 9,4 °C 8,4 °C 4,9 °C 92 % 1017,2 hPa 0,0 l/m² 0,00 h 0 W/m² 12,3 km/h (3 Bft) 97,91 %
27.02.2026 07:00 9,1 °C 8,3 °C 4,6 °C 93 % 1017,0 hPa 0,0 l/m² 0,00 h 12 W/m² 13,1 km/h (3 Bft) 97,14 %
27.02.2026 08:00 9,5 °C 9,4 °C 5,5 °C 94 % 1016,6 hPa 0,0 l/m² 0,00 h 42 W/m² 17,9 km/h (3 Bft) 97,09 %
27.02.2026 09:00 11,4 °C 13,0 °C 7,2 °C 92 % 1016,3 hPa 0,0 l/m² 0,53 h 148 W/m² 17,0 km/h (3 Bft) 98,79 %
27.02.2026 10:00 14,0 °C 18,8 °C 10,0 °C 85 % 1016,0 hPa 0,0 l/m² 0,83 h 295 W/m² 18,6 km/h (3 Bft) 97,09 %
27.02.2026 11:00 17,1 °C 24,3 °C 17,6 °C 75 % 1016,0 hPa 0,0 l/m² 1,00 h 462 W/m² 19,4 km/h (3 Bft) 98,49 %
27.02.2026 12:00 18,6 °C 23,5 °C 16,7 °C 71 % 1015,4 hPa 0,0 l/m² 1,00 h 502 W/m² 18,0 km/h (3 Bft) 95,09 %
27.02.2026 13:00 20,1 °C 25,4 °C 16,0 °C 59 % 1014,8 hPa 0,0 l/m² 1,00 h 505 W/m² 27,1 km/h (4 Bft) 98,73 %
27.02.2026 14:00 20,6 °C 24,4 °C 15,6 °C 55 % 1014,3 hPa 0,0 l/m² 1,00 h 438 W/m² 27,6 km/h (4 Bft) 97,40 %
27.02.2026 15:00 19,9 °C 22,3 °C 14,6 °C 55 % 1014,3 hPa 0,0 l/m² 0,97 h 310 W/m² 22,7 km/h (4 Bft) 97,29 %
27.02.2026 16:00 18,6 °C 18,1 °C 13,3 °C 58 % 1014,2 hPa 0,0 l/m² 0,43 h 129 W/m² 18,3 km/h (3 Bft) 97,93 %
27.02.2026 17:00 17,0 °C 15,8 °C 11,5 °C 60 % 1014,2 hPa 0,0 l/m² 0,00 h 16 W/m² 9,1 km/h (2 Bft) 97,42 %
27.02.2026 18:00 15,8 °C 14,6 °C 10,0 °C 64 % 1014,6 hPa 0,0 l/m² 0,00 h 4 W/m² 6,8 km/h (2 Bft) 96,79 %
27.02.2026 19:00 16,2 °C 15,5 °C 11,1 °C 64 % 1014,9 hPa 0,0 l/m² 0,00 h 0 W/m² 16,4 km/h (3 Bft) 98,99 %
27.02.2026 20:00 16,0 °C 15,0 °C 10,8 °C 66 % 1015,2 hPa 0,0 l/m² 0,00 h 0 W/m² 25,1 km/h (4 Bft) 95,49 %
27.02.2026 21:00 15,1 °C 13,9 °C 9,8 °C 72 % 1015,3 hPa 0,0 l/m² 0,00 h 0 W/m² 16,4 km/h (3 Bft) 98,08 %
27.02.2026 22:00 13,9 °C 12,6 °C 7,9 °C 81 % 1015,6 hPa 0,5 l/m² 0,00 h 0 W/m² 5,6 km/h (1 Bft) 98,50 %
27.02.2026 23:00 13,0 °C 11,3 °C 7,2 °C 88 % 1015,6 hPa 0,7 l/m² 0,00 h 0 W/m² 0,0 km/h (0 Bft) 95,94 %
28.02.2026 00:00 12,2 °C 11,0 °C 6,8 °C 91 % 1015,5 hPa 0,0 l/m² 0,00 h 0 W/m² 4,7 km/h (1 Bft) 97,96 %
28.02.2026 01:00 12,0 °C 11,1 °C 6,7 °C 91 % 1015,6 hPa 0,7 l/m² 0,00 h 0 W/m² 16,2 km/h (3 Bft) 97,59 %
28.02.2026 02:00 11,8 °C 10,7 °C 6,7 °C 92 % 1015,5 hPa 0,7 l/m² 0,00 h 0 W/m² 7,8 km/h (2 Bft) 97,40 %
28.02.2026 03:00 11,5 °C 10,7 °C 6,2 °C 94 % 1015,2 hPa 0,0 l/m² 0,00 h 0 W/m² 7,3 km/h (2 Bft) 95,47 %
28.02.2026 04:00 11,4 °C 10,7 °C 6,1 °C 93 % 1015,6 hPa 0,0 l/m² 0,00 h 0 W/m² 11,3 km/h (2 Bft) 98,72 %
28.02.2026 05:00 11,3 °C 10,6 °C 5,6 °C 90 % 1016,0 hPa 0,0 l/m² 0,00 h 0 W/m² 15,7 km/h (3 Bft) 97,30 %
28.02.2026 06:00 11,0 °C 10,0 °C 5,6 °C 88 % 1016,2 hPa 0,0 l/m² 0,00 h 0 W/m² 9,6 km/h (2 Bft) 96,51 %
28.02.2026 07:00 10,8 °C 10,1 °C 6,2 °C 86 % 1016,4 hPa 0,0 l/m² 0,00 h 9 W/m² 15,2 km/h (3 Bft) 98,08 %
28.02.2026 08:00 11,1 °C 10,7 °C 6,8 °C 82 % 1016,9 hPa 0,0 l/m² 0,00 h 30 W/m² 18,7 km/h (3 Bft) 96,08 %
28.02.2026 09:00 11,8 °C 11,8 °C 7,6 °C 78 % 1016,9 hPa 0,0 l/m² 0,10 h 106 W/m² 21,4 km/h (4 Bft) 96,44 %
28.02.2026 10:00 12,7 °C 13,3 °C 8,6 °C 75 % 1016,7 hPa 0,0 l/m² 0,27 h 175 W/m² 23,2 km/h (4 Bft) 98,58 %
28.02.2026 11:00 13,2 °C 14,1 °C 9,7 °C 73 % 1016,9 hPa 0,0 l/m² 0,20 h 190 W/m² 26,6 km/h (4 Bft) 94,75 %
28.02.2026 12:00 13,4 °C 15,7 °C 9,8 °C 69 % 1017,1 hPa 0,0 l/m² 0,53 h 396 W/m² 41,8 km/h (6 Bft) 97,63 %
28.02.2026 13:00 13,9 °C 16,4 °C 9,8 °C 64 % 1017,5 hPa 0,0 l/m² 0,67 h 377 W/m² 43,6 km/h (6 Bft) 98,31 %
28.02.2026 14:00 12,7 °C 12,5 °C 8,8 °C 66 % 1018,0 hPa 0,0 l/m² 0,00 h 152 W/m² 42,3 km/h (6 Bft) 95,96 %
28.02.2026 15:00 12,2 °C 11,8 °C 8,0 °C 68 % 1018,3 hPa 0,0 l/m² 0,00 h 81 W/m² 34,1 km/h (5 Bft) 95,96 %
28.02.2026 16:00 11,6 °C 11,0 °C 7,3 °C 73 % 1018,8 hPa 0,0 l/m² 0,00 h 60 W/m² 36,4 km/h (5 Bft) 98,79 %
28.02.2026 17:00 10,2 °C 9,4 °C 5,7 °C 80 % 1019,6 hPa 0,2 l/m² 0,00 h 11 W/m² 27,3 km/h (4 Bft) 93,71 %
28.02.2026 18:00 9,2 °C 8,3 °C 4,5 °C 86 % 1020,9 hPa 0,0 l/m² 0,00 h 6 W/m² 16,8 km/h (3 Bft) 98,16 %
28.02.2026 19:00 9,0 °C 8,1 °C 4,7 °C 85 % 1021,6 hPa 0,0 l/m² 0,00 h 0 W/m² 18,6 km/h (3 Bft) 98,44 %
28.02.2026 20:00 8,5 °C 7,8 °C 3,7 °C 87 % 1022,4 hPa 0,5 l/m² 0,00 h 0 W/m² 16,2 km/h (3 Bft) 96,04 %
28.02.2026 21:00 7,6 °C 6,7 °C 2,8 °C 92 % 1023,2 hPa 0,0 l/m² 0,00 h 0 W/m² 11,3 km/h (2 Bft) 97,67 %
28.02.2026 22:00 7,4 °C 6,5 °C 2,9 °C 92 % 1023,6 hPa 0,0 l/m² 0,00 h 0 W/m² 5,9 km/h (2 Bft) 96,75 %
28.02.2026 23:00 7,0 °C 6,2 °C 2,9 °C 93 % 1023,8 hPa 0,0 l/m² 0,00 h 0 W/m² 5,0 km/h (1 Bft) 98,45 %
01.03.2026 00:00 6,6 °C 5,7 °C 2,5 °C 91 % 1024,0 hPa 0,0 l/m² 0,00 h 0 W/m² 9,3 km/h (2 Bft) 95,75 %
01.03.2026 01:00 5,9 °C 4,9 °C 1,8 °C 88 % 1024,1 hPa 0,0 l/m² 0,00 h 0 W/m² 8,6 km/h (2 Bft) 95,95 %
01.03.2026 02:00 5,2 °C 4,1 °C 1,0 °C 88 % 1024,2 hPa 0,0 l/m² 0,00 h 0 W/m² 5,3 km/h (1 Bft) 96,70 %
01.03.2026 03:00 4,5 °C 3,5 °C 0,6 °C 89 % 1024,1 hPa 0,0 l/m² 0,00 h 0 W/m² 7,7 km/h (2 Bft) 98,17 %
01.03.2026 04:00 4,2 °C 3,1 °C 0,2 °C 90 % 1024,1 hPa 0,0 l/m² 0,00 h 0 W/m² 4,7 km/h (1 Bft) 94,14 %
01.03.2026 05:00 3,8 °C 2,8 °C 0,0 °C 91 % 1024,2 hPa 0,0 l/m² 0,00 h 0 W/m² 5,4 km/h (1 Bft) 97,03 %
01.03.2026 06:00 3,5 °C 2,8 °C -0,6 °C 91 % 1024,2 hPa 0,0 l/m² 0,00 h 0 W/m² 7,5 km/h (2 Bft) 97,36 %
01.03.2026 07:00 3,1 °C 2,2 °C -0,9 °C 92 % 1024,2 hPa 0,0 l/m² 0,00 h 13 W/m² 8,0 km/h (2 Bft) 97,22 %
01.03.2026 08:00 3,4 °C 3,6 °C -0,1 °C 93 % 1024,3 hPa 0,2 l/m² 0,00 h 56 W/m² 13,3 km/h (3 Bft) 97,86 %
01.03.2026 09:00 5,3 °C 7,4 °C 1,5 °C 93 % 1024,5 hPa 0,0 l/m² 0,73 h 177 W/m² 15,2 km/h (3 Bft) 97,15 %
01.03.2026 10:00 8,5 °C 14,7 °C 5,1 °C 84 % 1024,4 hPa 0,0 l/m² 0,83 h 314 W/m² 16,7 km/h (3 Bft) 94,11 %
01.03.2026 11:00 12,0 °C 19,5 °C 13,0 °C 73 % 1024,1 hPa 0,0 l/m² 0,97 h 437 W/m² 16,3 km/h (3 Bft) 97,30 %
01.03.2026 12:00 13,5 °C 15,8 °C 10,9 °C 65 % 1023,7 hPa 0,0 l/m² 0,53 h 355 W/m² 23,6 km/h (4 Bft) 95,96 %
01.03.2026 13:00 14,2 °C 18,8 °C 9,9 °C 62 % 1023,1 hPa 0,0 l/m² 0,60 h 393 W/m² 23,9 km/h (4 Bft) 98,74 %
01.03.2026 14:00 14,3 °C 16,8 °C 9,6 °C 62 % 1022,6 hPa 0,0 l/m² 0,47 h 286 W/m² 23,3 km/h (4 Bft) 98,35 %
01.03.2026 15:00 14,3 °C 15,9 °C 9,6 °C 61 % 1022,1 hPa 0,0 l/m² 0,57 h 250 W/m² 22,3 km/h (4 Bft) 96,30 %
01.03.2026 16:00 14,1 °C 14,0 °C 9,0 °C 61 % 1022,0 hPa 0,0 l/m² 0,53 h 172 W/m² 22,5 km/h (4 Bft) 96,69 %
01.03.2026 17:00 12,9 °C 12,2 °C 8,1 °C 63 % 1021,9 hPa 0,0 l/m² 0,00 h 24 W/m² 15,8 km/h (3 Bft) 97,77 %
01.03.2026 18:00 12,4 °C 11,4 °C 7,5 °C 65 % 1021,9 hPa 0,0 l/m² 0,00 h 8 W/m² 9,7 km/h (2 Bft) 94,73 %
01.03.2026 19:00 11,8 °C 10,7 °C 6,9 °C 69 % 1022,1 hPa 0,0 l/m² 0,00 h 0 W/m² 4,6 km/h (1 Bft) 99,58 %
01.03.2026 20:00 10,8 °C 9,5 °C 5,8 °C 71 % 1022,1 hPa 0,0 l/m² 0,00 h 0 W/m² 8,8 km/h (2 Bft) 97,08 %
01.03.2026 21:00 10,0 °C 8,9 °C 5,3 °C 73 % 1022,4 hPa 0,0 l/m² 0,00 h 0 W/m² 8,5 km/h (2 Bft) 96,21 %
01.03.2026 22:00 9,3 °C 7,8 °C 4,4 °C 75 % 1022,6 hPa 0,0 l/m² 0,00 h 0 W/m² 6,4 km/h (2 Bft) 95,99 %
01.03.2026 23:00 8,3 °C 7,0 °C 3,6 °C 78 % 1022,5 hPa 0,0 l/m² 0,00 h 0 W/m² 6,2 km/h (2 Bft) 98,33 %
Min-Datum _ 01.03.26 01.03.26 01.03.26 27.02.26 27.02.26 - - - 23.02.26 25.02.26
_ Min-Zeit 07:46 07:04 07:26 14:42 16:04 - - - 19:38 00:02
Minimum _ 3,0 °C 2,2 °C -1,1 °C 53 % 1014,1 hPa - - - 0,0 km/h (0 Bft) 8,33 %
Max-Datum _ 27.02.26 27.02.26 27.02.26 25.02.26 01.03.26 23.02.26 25.02.26 28.02.26 28.02.26 23.02.26
_ Max-Zeit 14:14 12:48 11:36 06:28 08:58 18:40 12:08 12:56 12:07 00:04
Maximum _ 20,8 °C 27,2 °C 19,4 °C 100 % 1024,6 hPa 1,0 l/m² 0,07 h 730 W/m² 70,8 km/h
S-SW (8 Bft)
100,00 %
Durchschnitt _ 11,3 °C 11,4 °C 7,1 °C 86 % 1019,0 hPa #6,2 l/m² #28:38 h 174 W/m² 13,8 km/h (3 Bft) 97,23 %
© 2026 W. Hausmann